createdAt,value
2019-01-02T00:00:09.542Z,57.35
2019-01-02T00:02:39.177Z,57.23
2019-01-02T00:05:08.613Z,57.14
2019-01-02T00:07:38.347Z,57.22
2019-01-02T00:10:07.784Z,57.13
2019-01-02T00:12:37.136Z,57.03
2019-01-02T00:15:07.393Z,57.03
2019-01-02T00:17:36.815Z,57.05
2019-01-02T00:20:08.161Z,57.11
2019-01-02T00:22:37.506Z,57.12
2019-01-02T00:25:07.398Z,57.10
2019-01-02T00:27:36.746Z,57.05
2019-01-02T00:30:06.795Z,57.08
2019-01-02T00:32:36.219Z,57.09
2019-01-02T00:35:05.841Z,57.08
2019-01-02T00:37:35.360Z,57.00
2019-01-02T00:40:04.993Z,57.13
2019-01-02T00:42:34.630Z,57.03
2019-01-02T00:45:04.003Z,56.83
2019-01-02T00:47:33.627Z,56.86
2019-01-02T00:50:03.133Z,56.86
2019-01-02T00:52:32.816Z,56.94
2019-01-02T00:55:02.184Z,56.94
2019-01-02T00:57:31.924Z,56.76
2019-01-02T01:00:01.304Z,56.77
2019-01-02T01:02:30.913Z,56.85
2019-01-02T01:05:00.641Z,56.84
2019-01-02T01:07:30.417Z,56.84
2019-01-02T01:09:59.837Z,56.92
2019-01-02T01:12:29.488Z,56.88
2019-01-02T01:14:58.968Z,56.75
2019-01-02T01:17:28.582Z,56.69
2019-01-02T01:19:57.962Z,56.77
2019-01-02T01:22:27.662Z,56.68
2019-01-02T01:24:57.027Z,56.57
2019-01-02T01:27:26.374Z,56.65
2019-01-02T01:29:56.010Z,56.58
2019-01-02T01:32:25.371Z,56.46
2019-01-02T01:34:55.010Z,56.46
2019-01-02T01:37:24.413Z,56.31
2019-01-02T01:39:53.756Z,56.28
2019-01-02T01:42:23.394Z,56.33
2019-01-02T01:44:52.766Z,56.32
2019-01-02T01:47:22.106Z,56.38
2019-01-02T01:49:51.557Z,56.29
2019-01-02T01:52:21.073Z,56.26
2019-01-02T01:54:50.784Z,56.27
2019-01-02T01:57:20.208Z,56.26
2019-01-02T01:59:49.615Z,56.25
2019-01-02T02:02:19.424Z,56.01
2019-01-02T02:04:48.877Z,56.00
2019-01-02T02:07:18.241Z,55.94
2019-01-02T02:09:47.582Z,55.85
2019-01-02T02:12:16.952Z,55.71
2019-01-02T02:14:46.488Z,55.70
2019-01-02T02:17:16.059Z,55.63
2019-01-02T02:19:45.459Z,55.49
2019-01-02T02:22:15.171Z,55.58
2019-01-02T02:24:44.573Z,55.38
2019-01-02T02:27:14.271Z,55.24
2019-01-02T02:29:43.613Z,55.23
2019-01-02T02:32:13.062Z,55.31
2019-01-02T06:45:18.939Z,59.70
2019-01-02T06:47:48.506Z,52.69
2019-01-02T06:50:23.394Z,51.57
2019-01-02T06:52:52.783Z,51.38
2019-01-02T06:55:22.242Z,51.10
2019-01-02T06:57:51.739Z,51.11
2019-01-02T07:00:30.287Z,51.10
2019-01-02T07:02:59.895Z,51.04
2019-01-02T07:05:29.399Z,50.96
2019-01-02T07:07:58.840Z,50.99
2019-01-02T07:10:28.332Z,50.82
2019-01-02T07:12:57.858Z,50.93
2019-01-02T07:15:27.337Z,50.69
2019-01-02T07:17:56.770Z,50.67
2019-01-02T07:20:26.182Z,50.73
2019-01-02T07:22:55.593Z,50.86
2019-01-02T07:25:25.013Z,50.90
2019-01-02T07:27:54.438Z,50.93
2019-01-02T07:30:24.928Z,50.90
2019-01-02T07:32:54.367Z,50.89
2019-01-02T07:35:59.327Z,50.91
2019-01-02T07:38:59.721Z,50.88
2019-01-02T07:41:58.410Z,50.88
2019-01-02T07:45:10.107Z,50.86
2019-01-02T07:48:23.297Z,50.96
2019-01-02T07:51:29.849Z,51.11
2019-01-02T07:54:28.039Z,51.19
2019-01-02T07:57:23.520Z,51.32
2019-01-02T08:00:33.200Z,51.41
2019-01-02T08:03:33.393Z,51.31
2019-01-02T08:06:27.679Z,51.27
2019-01-02T08:09:30.826Z,51.24
2019-01-02T08:12:52.698Z,51.43
2019-01-02T08:16:00.682Z,51.52
2019-01-02T08:19:14.822Z,51.39
2019-01-02T08:22:27.928Z,51.54
2019-01-02T08:25:20.449Z,51.51
2019-01-02T08:28:41.756Z,51.24
2019-01-02T08:31:44.947Z,51.46
2019-01-02T08:34:41.646Z,51.39
2019-01-02T08:37:36.275Z,51.25
2019-01-02T08:40:29.644Z,51.31
2019-01-02T08:43:34.576Z,51.15
2019-01-02T08:46:33.109Z,51.09
2019-01-02T08:49:39.550Z,51.12
2019-01-02T08:52:43.711Z,51.10
2019-01-02T08:55:51.709Z,51.18
2019-01-02T08:58:59.648Z,51.12
2019-01-02T09:01:55.951Z,51.12
2019-01-02T09:04:57.529Z,51.19
2019-01-02T09:07:56.246Z,51.12
2019-01-02T09:11:06.463Z,51.18
2019-01-02T09:14:18.597Z,51.09
2019-01-02T09:17:26.691Z,51.06
2019-01-02T09:20:43.430Z,50.91
2019-01-02T09:23:37.353Z,51.16
2019-01-02T09:27:04.039Z,51.03
2019-01-02T09:30:00.656Z,51.03
2019-01-02T09:33:20.542Z,51.04
2019-01-02T09:36:29.944Z,51.12
2019-01-02T09:39:14.218Z,51.00
2019-01-02T09:42:16.300Z,50.91
2019-01-02T09:45:21.549Z,50.88
2019-01-02T09:48:38.802Z,50.88
2019-01-02T09:51:43.926Z,50.89
2019-01-02T09:55:12.472Z,50.94
2019-01-02T09:58:19.467Z,50.98
2019-01-02T10:00:59.868Z,50.81
2019-01-02T10:03:54.084Z,50.94
2019-01-02T10:07:16.884Z,50.95
2019-01-02T10:10:19.368Z,50.94
2019-01-02T10:13:25.730Z,50.88
2019-01-02T10:16:37.725Z,50.73
2019-01-02T10:19:37.031Z,50.72
2019-01-02T10:22:32.364Z,50.63
2019-01-02T10:25:32.461Z,50.62
2019-01-02T10:28:37.046Z,50.60
2019-01-02T10:31:33.554Z,50.49
2019-01-02T10:34:24.394Z,50.21
2019-01-02T10:37:43.207Z,50.13
2019-01-02T10:41:01.660Z,50.00
2019-01-02T10:44:02.805Z,49.90
2019-01-02T10:47:16.010Z,49.43
2019-01-02T10:50:33.026Z,49.43
2019-01-02T10:53:29.517Z,49.20
2019-01-02T10:56:25.633Z,49.32
2019-01-02T10:59:56.967Z,49.20
2019-01-02T11:03:11.125Z,49.21
2019-01-02T11:06:20.487Z,49.27
2019-01-02T11:09:16.102Z,49.32
2019-01-02T11:12:13.027Z,49.48
2019-01-02T11:14:56.764Z,49.28
2019-01-02T11:17:55.622Z,49.18
2019-01-02T11:21:02.144Z,49.20
2019-01-02T11:24:08.190Z,48.87
2019-01-02T11:27:09.146Z,48.65
2019-01-02T11:30:16.552Z,48.75
2019-01-02T11:33:19.428Z,48.68
2019-01-02T11:36:34.909Z,48.85
2019-01-02T11:39:44.266Z,48.74
2019-01-02T11:43:03.932Z,48.68
2019-01-02T11:45:33.446Z,48.31
2019-01-02T11:48:03.010Z,48.12
2019-01-02T11:50:32.517Z,48.45
2019-01-02T11:53:02.063Z,48.43
2019-01-02T11:55:31.683Z,48.42
2019-01-02T11:58:01.198Z,48.23
2019-01-02T12:00:30.887Z,48.12
2019-01-02T12:03:00.316Z,48.37
2019-01-02T12:05:29.769Z,48.48
2019-01-02T12:07:59.508Z,48.39
2019-01-02T12:10:29.123Z,48.27
2019-01-02T12:12:58.774Z,48.34
2019-01-02T12:15:28.295Z,48.45
2019-01-02T12:17:57.835Z,48.13
2019-01-02T12:20:27.392Z,48.64
2019-01-02T12:22:57.038Z,48.75
2019-01-02T12:25:26.568Z,48.87
2019-01-02T12:27:56.237Z,48.86
2019-01-02T12:30:25.744Z,49.07
2019-01-02T12:32:55.333Z,49.60
2019-01-02T12:35:24.780Z,49.40
2019-01-02T12:37:54.320Z,49.36
2019-01-02T12:40:23.878Z,49.49
2019-01-02T12:42:53.392Z,49.49
2019-01-02T12:45:23.054Z,49.86
2019-01-02T12:47:52.622Z,50.06
2019-01-02T12:50:22.169Z,49.85
2019-01-02T12:52:51.728Z,49.76
2019-01-02T12:55:21.318Z,49.70
2019-01-02T12:57:50.905Z,49.62
2019-01-02T13:00:20.425Z,49.53
2019-01-02T13:03:26.826Z,49.75
2019-01-02T13:06:32.079Z,49.73
2019-01-02T13:09:13.026Z,49.82
2019-01-02T13:12:07.344Z,49.74
2019-01-02T13:15:12.317Z,49.73
2019-01-02T13:18:21.806Z,49.78
2019-01-02T13:21:40.564Z,49.72
2019-01-02T13:25:00.062Z,49.79
2019-01-02T13:27:56.789Z,49.85
2019-01-02T13:30:49.906Z,49.89
2019-01-02T13:33:59.275Z,49.84
2019-01-02T13:36:54.492Z,49.74
2019-01-02T13:40:01.463Z,49.43
2019-01-02T13:43:05.141Z,49.57
2019-01-02T13:45:44.024Z,49.12
2019-01-02T13:48:49.839Z,49.16
2019-01-02T13:51:29.378Z,49.09
2019-01-02T13:53:58.910Z,49.09
2019-01-02T13:56:28.798Z,49.02
2019-01-02T13:58:58.330Z,49.07
2019-01-02T14:01:27.743Z,49.16
2019-01-02T14:04:00.301Z,49.22
2019-01-02T14:06:29.694Z,49.18
2019-01-02T14:08:59.223Z,49.30
2019-01-02T14:11:28.731Z,49.28
2019-01-02T14:13:58.232Z,49.26
2019-01-02T14:16:27.632Z,49.29
2019-01-02T14:18:57.098Z,49.36
2019-01-02T14:21:26.522Z,49.28
2019-01-02T14:23:56.010Z,49.30
2019-01-02T14:26:25.475Z,49.37
2019-01-02T14:28:54.866Z,49.34
2019-01-02T14:31:24.258Z,49.44
2019-01-02T14:33:53.789Z,49.48
2019-01-02T14:36:23.330Z,49.45
2019-01-02T14:38:52.869Z,49.46
2019-01-02T14:41:22.322Z,49.40
2019-01-02T14:43:51.794Z,49.44
2019-01-02T14:46:21.248Z,49.43
2019-01-02T14:48:50.687Z,49.46
2019-01-02T14:51:20.197Z,49.35
2019-01-02T14:53:49.721Z,49.48
2019-01-02T14:56:19.539Z,49.47
2019-01-02T14:58:48.946Z,49.31
2019-01-02T15:01:19.059Z,49.27
2019-01-02T15:03:48.662Z,49.20
2019-01-02T15:06:18.152Z,49.31
2019-01-02T15:08:47.618Z,49.32
2019-01-02T15:11:17.148Z,49.39
2019-01-02T15:13:46.688Z,49.31
2019-01-02T15:16:16.164Z,49.26
2019-01-02T15:18:45.659Z,49.31
2019-01-02T15:21:15.144Z,49.30
2019-01-02T15:23:44.627Z,49.28
2019-01-02T15:26:14.077Z,49.29
2019-01-02T15:28:43.488Z,49.36
2019-01-02T15:31:12.935Z,49.43
2019-01-02T15:33:42.418Z,49.32
2019-01-02T15:36:11.817Z,49.37
2019-01-02T15:38:41.335Z,49.48
2019-01-02T15:41:10.803Z,49.42
2019-01-02T15:43:40.325Z,49.50
2019-01-02T15:46:09.789Z,49.48
2019-01-02T15:48:39.315Z,49.61
2019-01-02T15:51:08.801Z,49.69
2019-01-02T15:53:38.380Z,49.69
2019-01-02T15:56:08.030Z,49.80
2019-01-02T15:58:37.593Z,49.78
2019-01-02T16:01:07.184Z,49.87
2019-01-02T16:03:36.782Z,49.82
2019-01-02T16:06:06.880Z,49.84
2019-01-02T16:08:36.510Z,49.70
2019-01-02T16:11:06.158Z,49.78
2019-01-02T16:13:36.058Z,49.85
2019-01-02T16:16:05.680Z,49.87
2019-01-02T16:18:35.256Z,49.81
2019-01-02T16:21:04.817Z,49.80
2019-01-02T16:23:36.316Z,49.76
2019-01-02T16:26:06.035Z,49.97
2019-01-02T16:28:35.584Z,49.86
2019-01-02T16:31:05.356Z,49.99
2019-01-02T16:33:34.835Z,49.70
2019-01-02T16:36:04.448Z,49.71
2019-01-02T16:38:33.984Z,49.76
2019-01-02T16:41:03.399Z,49.85
2019-01-02T16:43:33.606Z,49.87
2019-01-02T16:46:03.392Z,49.44
2019-01-02T16:48:33.427Z,49.70
2019-01-02T16:51:02.945Z,49.61
2019-01-02T16:53:33.230Z,49.40
2019-01-02T16:56:02.671Z,49.58
2019-01-02T16:58:32.177Z,49.29
2019-01-02T17:01:01.747Z,49.52
2019-01-02T17:03:31.466Z,49.54
2019-01-02T17:06:01.132Z,49.47
2019-01-02T17:08:30.616Z,49.70
2019-01-02T17:11:00.074Z,49.68
2019-01-02T17:13:29.528Z,49.53
2019-01-02T17:15:58.993Z,49.57
2019-01-02T17:18:28.487Z,49.75
2019-01-02T17:20:58.023Z,49.60
2019-01-02T17:23:27.499Z,49.30
2019-01-02T17:25:56.922Z,49.43
2019-01-02T17:28:26.342Z,49.44
2019-01-02T17:30:55.729Z,49.47
2019-01-02T17:33:25.236Z,49.42
2019-01-02T17:35:54.759Z,49.59
2019-01-02T17:38:24.229Z,49.25
2019-01-02T17:40:53.862Z,49.36
2019-01-02T17:43:23.493Z,49.28
2019-01-02T17:45:52.962Z,49.14
2019-01-02T17:48:22.379Z,49.11
2019-01-02T17:50:51.951Z,49.19
2019-01-02T17:53:21.453Z,49.11
2019-01-02T17:55:50.889Z,49.17
2019-01-02T17:58:20.298Z,49.24
2019-01-02T18:00:49.777Z,49.28
2019-01-02T18:03:19.194Z,49.31
2019-01-02T18:05:48.753Z,49.36
2019-01-02T18:08:18.199Z,49.28
2019-01-02T18:10:47.718Z,49.21
2019-01-02T18:13:17.205Z,49.44
2019-01-02T18:15:46.627Z,49.34
2019-01-02T18:18:16.031Z,49.36
2019-01-02T18:20:45.534Z,49.28
2019-01-02T18:23:15.004Z,49.24
2019-01-02T18:25:44.401Z,49.35
2019-01-02T18:28:13.827Z,49.59
2019-01-02T18:30:43.249Z,49.16
2019-01-02T18:33:12.655Z,49.74
2019-01-02T18:35:42.125Z,49.59
2019-01-02T18:38:11.559Z,49.79
2019-01-02T18:40:40.958Z,49.56
2019-01-02T18:43:10.367Z,49.63
2019-01-02T18:45:39.776Z,49.75
2019-01-02T18:48:09.291Z,49.59
2019-01-02T18:50:38.946Z,49.51
2019-01-02T18:53:08.448Z,49.41
2019-01-02T18:55:37.981Z,49.68
2019-01-02T18:58:07.620Z,49.65
2019-01-02T19:00:37.105Z,49.88
2019-01-02T19:03:06.720Z,49.67
2019-01-02T19:05:36.304Z,49.83
2019-01-02T19:08:05.995Z,49.78
2019-01-02T19:10:35.656Z,49.73
2019-01-02T19:13:05.478Z,49.53
2019-01-02T19:15:35.080Z,49.20
2019-01-02T19:18:04.627Z,49.36
2019-01-02T19:20:34.077Z,49.69
2019-01-02T19:23:03.583Z,48.98
2019-01-02T19:25:33.082Z,49.87
2019-01-02T19:28:02.620Z,49.71
2019-01-02T19:30:32.116Z,49.83
2019-01-02T19:33:01.618Z,49.56
2019-01-02T19:35:31.130Z,49.53
2019-01-02T19:38:00.699Z,49.55
2019-01-02T19:40:30.208Z,49.83
2019-01-02T19:42:59.636Z,49.69
2019-01-02T19:45:29.101Z,49.42
2019-01-02T19:47:58.623Z,49.58
2019-01-02T19:50:28.143Z,49.52
2019-01-02T19:52:57.597Z,49.52
2019-01-02T19:55:27.131Z,49.62
2019-01-02T19:57:56.628Z,49.59
2019-01-02T20:00:26.047Z,49.43
2019-01-02T20:02:55.449Z,49.39
2019-01-02T20:05:24.990Z,49.86
2019-01-02T20:07:54.373Z,49.96
2019-01-02T20:10:23.891Z,49.90
2019-01-02T20:12:53.443Z,49.81
2019-01-02T20:15:22.944Z,49.95
2019-01-02T20:17:52.481Z,50.07
2019-01-02T20:20:21.976Z,49.87
2019-01-02T20:22:51.503Z,49.87
2019-01-02T20:25:21.014Z,50.15
2019-01-02T20:27:50.774Z,49.95
2019-01-02T20:30:20.297Z,49.90
2019-01-02T20:32:50.705Z,49.96
2019-01-02T20:35:20.229Z,50.01
2019-01-02T20:37:49.994Z,50.00
2019-01-02T20:40:19.474Z,49.53
2019-01-02T20:42:49.071Z,49.54
2019-01-02T20:45:18.697Z,49.78
2019-01-02T20:47:48.209Z,49.79
2019-01-02T20:50:17.886Z,49.90
2019-01-02T20:52:47.343Z,49.71
2019-01-02T20:55:16.915Z,49.47
2019-01-02T20:57:46.321Z,49.73
2019-01-02T21:00:15.927Z,49.21
2019-01-02T21:02:45.446Z,49.74
2019-01-02T21:05:14.941Z,49.60
2019-01-02T21:07:44.429Z,49.61
2019-01-02T21:10:13.838Z,49.61
2019-01-02T21:12:43.244Z,49.62
2019-01-02T21:15:12.657Z,49.62
2019-01-02T21:17:42.083Z,49.55
2019-01-02T21:20:11.565Z,49.62
2019-01-02T21:22:41.040Z,49.51
2019-01-02T21:25:10.775Z,49.54
2019-01-02T21:27:40.236Z,49.54
2019-01-02T21:30:10.223Z,49.61
2019-01-02T21:32:39.797Z,49.58
2019-01-02T21:35:09.386Z,49.58
2019-01-02T21:37:38.920Z,49.50
2019-01-02T21:40:09.232Z,49.61
2019-01-02T21:42:38.648Z,49.54
2019-01-02T21:45:08.243Z,49.40
2019-01-02T21:47:37.648Z,49.73
2019-01-02T21:50:07.584Z,49.50
2019-01-02T21:52:37.173Z,49.75
2019-01-02T21:55:07.004Z,49.63
2019-01-02T21:57:36.679Z,49.43
2019-01-02T22:00:08.356Z,49.57
2019-01-02T22:02:40.432Z,49.54
2019-01-02T22:05:08.938Z,49.49
2019-01-02T22:07:38.467Z,49.48
2019-01-02T22:10:08.520Z,49.33
2019-01-02T22:12:38.159Z,49.24
2019-01-02T22:15:09.463Z,49.34
2019-01-02T22:17:38.945Z,49.24
2019-01-02T22:20:08.598Z,49.28
2019-01-02T22:22:38.220Z,49.18
2019-01-02T22:25:08.220Z,49.02
2019-01-02T22:27:37.730Z,49.02
2019-01-02T22:30:08.364Z,48.93
2019-01-02T22:32:37.820Z,49.15
2019-01-02T22:35:07.471Z,49.38
2019-01-02T22:37:36.971Z,49.01
2019-01-02T22:40:07.620Z,49.21
2019-01-02T22:42:37.058Z,49.40
2019-01-02T22:45:06.730Z,49.33
2019-01-02T22:47:36.239Z,49.15
2019-01-02T22:50:07.635Z,49.27
2019-01-02T22:52:37.100Z,49.53
2019-01-02T22:55:06.610Z,49.53
2019-01-02T22:57:36.112Z,49.17
2019-01-02T23:00:07.955Z,49.52
2019-01-02T23:03:02.364Z,49.37
2019-01-02T23:05:48.115Z,49.25
2019-01-02T23:08:28.043Z,49.13
2019-01-02T23:11:15.344Z,49.28
2019-01-02T23:14:02.545Z,49.14
2019-01-02T23:16:49.746Z,49.15
2019-01-02T23:19:36.888Z,49.17
2019-01-02T23:22:28.560Z,49.16
2019-01-02T23:25:15.711Z,49.20
2019-01-02T23:28:07.241Z,49.36
2019-01-02T23:31:04.876Z,49.21
2019-01-02T23:34:11.439Z,49.38
2019-01-02T23:37:06.071Z,49.44
2019-01-02T23:39:52.769Z,49.44
2019-01-02T23:42:53.367Z,49.41
2019-01-02T23:45:49.039Z,49.37
2019-01-02T23:48:40.238Z,49.30
2019-01-02T23:51:27.364Z,49.38
2019-01-02T23:54:14.548Z,49.41
2019-01-02T23:57:01.782Z,49.43
2019-01-02T23:59:53.851Z,49.37
